Nefterudovoz 47m — UFFP — position and weather

sailwx.info

Track history (hours):
 
Tides and Currents Weather Stations Pressure Air Temp Water Temp Dewpoint Dewpoint Depression Visibility Wind Speed Wind Dir Waves Ship Positions

Nefterudovoz 47m

Last reported at 2016-Nov-25 23:05 UTC. Time now 2016-Dec-10 18:37 UTC.
Position N 45°17' E 036°29'.
Warning: this ship's position is 14 days out of date.

Length 119 m; draft 2.9 m.

Type: Cargo ship. MMSI: 273347800.

Date/timePositionNaut miles runAvg speedWind from/ knotsBaromVisibWave heightAir tempDewpointWater temp
2016-Nov-25 23:05N 45°17' E 036°29'3 5.8
2016-Nov-25 22:33N 45°19' E 036°32'5 4.7
2016-Nov-25 21:33N 45°20' E 036°38'5 5.2
2016-Nov-25 20:33N 45°25' E 036°41'4 3.5
2016-Nov-25 19:32N 45°28' E 036°44'0 0.0
2016-Nov-25 18:31N 45°28' E 036°44'0 0.0
2016-Nov-25 17:31N 45°28' E 036°44'0 0.1
2016-Nov-25 16:33N 45°28' E 036°43'5 5.2
2016-Nov-25 15:33N 45°32' E 036°48'  
Track history (hours):
 
Tides and Currents Weather Stations Pressure Air Temp Water Temp Dewpoint Dewpoint Depression Visibility Wind Speed Wind Dir Waves Ship Positions

Nefterudovoz 47m

Last reported at 2016-Nov-25 23:05 UTC. Time now 2016-Dec-10 18:37 UTC.
Position N 45°17' E 036°29'.
Warning: this ship's position is 14 days out of date.

Length 119 m; draft 2.9 m.

Type: Cargo ship. MMSI: 273347800.

Date/timePositionNaut miles runAvg speedWind from/ knotsBaromVisibWave heightAir tempDewpointWater temp
2016-Nov-25 23:05N 45°17' E 036°29'3 5.8
2016-Nov-25 22:33N 45°19' E 036°32'5 4.7
2016-Nov-25 21:33N 45°20' E 036°38'5 5.2
2016-Nov-25 20:33N 45°25' E 036°41'4 3.5
2016-Nov-25 19:32N 45°28' E 036°44'0 0.0
2016-Nov-25 18:31N 45°28' E 036°44'0 0.0
2016-Nov-25 17:31N 45°28' E 036°44'0 0.1
2016-Nov-25 16:33N 45°28' E 036°43'5 5.2
2016-Nov-25 15:33N 45°32' E 036°48'  

Dump ship's entire track history